WZZ3KM LWSK-LJLJ
Flight info
| Callsign | WZZ3KM |
|---|---|
| Flight time | 1h 13m |
| Altitude | 36000 |
| Route | RAXAD DCT VAGEN DCT RAMAP DCT KOSIV DCT DER DCT GUBOK DCT MAGAM |
| Aircraft | A321/M-SDE3FGHIRWY/LB1 |
Departure
| Time | 2026-04-22 12:02 |
|---|---|
| Airport | Skopje International Airport (LWSK) |
Arrival
| Time | 2026-04-22 13:15 |
|---|---|
| Airport | Ljubljana Jože Pučnik Airport (LJLJ) |
| Time | Latitude | Longitude | Altitude | Speed | Heading |
|---|---|---|---|---|---|
| 2026-04-22 11:39 | 41.96068 | 21.62589 | 793 ft | 0 kts | 77° |
| 2026-04-22 11:43 | 41.96068 | 21.62588 | 793 ft | 0 kts | 77° |
| 2026-04-22 11:51 | 41.96068 | 21.62589 | 793 ft | 0 kts | 77° |
| 2026-04-22 11:52 | 41.96066 | 21.62577 | 793 ft | 4 kts | 83° |
| 2026-04-22 11:52 | 41.96066 | 21.62550 | 793 ft | 1 kts | 97° |
| 2026-04-22 11:54 | 41.96066 | 21.62551 | 793 ft | 1 kts | 97° |
| 2026-04-22 11:54 | 41.96066 | 21.62554 | 793 ft | 0 kts | 97° |
| 2026-04-22 11:56 | 41.96065 | 21.62555 | 793 ft | 0 kts | 103° |
| 2026-04-22 11:56 | 41.96064 | 21.62556 | 793 ft | 0 kts | 117° |
| 2026-04-22 11:56 | 41.96060 | 21.62560 | 793 ft | 1 kts | 134° |
| 2026-04-22 11:56 | 41.96039 | 21.62561 | 793 ft | 5 kts | 192° |
| 2026-04-22 11:57 | 41.96019 | 21.62520 | 793 ft | 6 kts | 249° |
| 2026-04-22 11:57 | 41.95981 | 21.62482 | 791 ft | 9 kts | 177° |
| 2026-04-22 11:57 | 41.95911 | 21.62501 | 791 ft | 11 kts | 165° |
| 2026-04-22 11:57 | 41.95825 | 21.62532 | 789 ft | 14 kts | 165° |
| 2026-04-22 11:58 | 41.95716 | 21.62570 | 787 ft | 18 kts | 165° |
| 2026-04-22 11:58 | 41.95588 | 21.62614 | 786 ft | 20 kts | 165° |
| 2026-04-22 11:58 | 41.95449 | 21.62665 | 783 ft | 22 kts | 165° |
| 2026-04-22 11:58 | 41.95293 | 21.62718 | 781 ft | 24 kts | 165° |
| 2026-04-22 11:59 | 41.95183 | 21.62750 | 778 ft | 13 kts | 185° |
| 2026-04-22 11:59 | 41.95141 | 21.62689 | 778 ft | 0 kts | 253° |
| 2026-04-22 12:00 | 41.95139 | 21.62679 | 778 ft | 4 kts | 253° |
| 2026-04-22 12:00 | 41.95126 | 21.62611 | 779 ft | 9 kts | 257° |
| 2026-04-22 12:00 | 41.95121 | 21.62531 | 781 ft | 8 kts | 293° |
| 2026-04-22 12:00 | 41.95165 | 21.62495 | 781 ft | 9 kts | 338° |
| 2026-04-22 12:01 | 41.95227 | 21.62470 | 781 ft | 10 kts | 345° |
| 2026-04-22 12:01 | 41.95430 | 21.62399 | 782 ft | 66 kts | 345° |
| 2026-04-22 12:01 | 41.96116 | 21.62158 | 789 ft | 135 kts | 346° |
| 2026-04-22 12:01 | 41.97179 | 21.61786 | 1003 ft | 167 kts | 343° |
| 2026-04-22 12:02 | 41.98279 | 21.61443 | 1831 ft | 161 kts | 345° |
| 2026-04-22 12:02 | 41.99366 | 21.61072 | 2648 ft | 166 kts | 345° |
| 2026-04-22 12:02 | 42.00575 | 21.60711 | 3009 ft | 191 kts | 355° |
| 2026-04-22 12:02 | 42.01954 | 21.60799 | 3525 ft | 208 kts | 14° |
| 2026-04-22 12:03 | 42.03195 | 21.61923 | 3905 ft | 232 kts | 55° |
| 2026-04-22 12:03 | 42.03642 | 21.64069 | 4454 ft | 251 kts | 93° |
| 2026-04-22 12:03 | 42.03363 | 21.66405 | 4901 ft | 259 kts | 101° |
| 2026-04-22 12:03 | 42.02967 | 21.68767 | 4992 ft | 259 kts | 102° |
| 2026-04-22 12:04 | 42.02566 | 21.71154 | 5613 ft | 262 kts | 100° |
| 2026-04-22 12:04 | 42.02314 | 21.73567 | 6548 ft | 262 kts | 85° |
| 2026-04-22 12:04 | 42.02785 | 21.75937 | 7185 ft | 270 kts | 59° |
| 2026-04-22 12:04 | 42.03826 | 21.78075 | 7884 ft | 277 kts | 54° |
| 2026-04-22 12:05 | 42.04926 | 21.80226 | 8686 ft | 282 kts | 54° |
| 2026-04-22 12:05 | 42.06050 | 21.82412 | 9502 ft | 286 kts | 54° |
| 2026-04-22 12:05 | 42.07189 | 21.84630 | 10246 ft | 292 kts | 53° |
| 2026-04-22 12:05 | 42.08387 | 21.86971 | 10521 ft | 315 kts | 53° |
| 2026-04-22 12:06 | 42.09707 | 21.89463 | 10726 ft | 338 kts | 49° |
| 2026-04-22 12:06 | 42.11240 | 21.91972 | 11074 ft | 354 kts | 49° |
| 2026-04-22 12:06 | 42.12822 | 21.94560 | 11668 ft | 361 kts | 49° |
| 2026-04-22 12:06 | 42.14429 | 21.97194 | 12348 ft | 367 kts | 49° |
| 2026-04-22 12:07 | 42.16060 | 21.99870 | 13040 ft | 373 kts | 48° |
| 2026-04-22 12:07 | 42.17717 | 22.02592 | 13693 ft | 379 kts | 48° |
| 2026-04-22 12:07 | 42.19403 | 22.05367 | 14273 ft | 385 kts | 48° |
| 2026-04-22 12:07 | 42.21104 | 22.08175 | 14919 ft | 388 kts | 47° |
| 2026-04-22 12:08 | 42.22818 | 22.11013 | 15588 ft | 391 kts | 47° |
| 2026-04-22 12:08 | 42.24543 | 22.13866 | 16250 ft | 394 kts | 47° |
| 2026-04-22 12:08 | 42.26310 | 22.16715 | 16932 ft | 396 kts | 43° |
| 2026-04-22 12:08 | 42.28405 | 22.19110 | 17576 ft | 394 kts | 29° |
| 2026-04-22 12:09 | 42.30830 | 22.20802 | 18207 ft | 392 kts | 15° |
| 2026-04-22 12:09 | 42.32551 | 22.21501 | 18585 ft | 389 kts | 7° |
| 2026-04-22 12:09 | 42.36124 | 22.21844 | 19370 ft | 382 kts | 349° |
| 2026-04-22 12:09 | 42.37849 | 22.21489 | 19781 ft | 377 kts | 340° |
| 2026-04-22 12:10 | 42.40371 | 22.20522 | 20407 ft | 377 kts | 336° |
| 2026-04-22 12:10 | 42.42894 | 22.19520 | 21033 ft | 379 kts | 337° |
| 2026-04-22 12:10 | 42.45435 | 22.18509 | 21593 ft | 382 kts | 336° |
| 2026-04-22 12:10 | 42.47992 | 22.17495 | 22248 ft | 383 kts | 336° |
| 2026-04-22 12:11 | 42.50553 | 22.16481 | 22877 ft | 384 kts | 335° |
| 2026-04-22 12:11 | 42.53124 | 22.15465 | 23471 ft | 385 kts | 335° |
| 2026-04-22 12:11 | 42.55705 | 22.14442 | 23953 ft | 387 kts | 335° |
| 2026-04-22 12:11 | 42.58295 | 22.13414 | 24454 ft | 389 kts | 334° |
| 2026-04-22 12:12 | 42.60899 | 22.12377 | 24881 ft | 392 kts | 335° |
| 2026-04-22 12:12 | 42.63525 | 22.11330 | 25290 ft | 395 kts | 335° |
| 2026-04-22 12:12 | 42.66175 | 22.10277 | 25728 ft | 398 kts | 335° |
| 2026-04-22 12:12 | 42.68818 | 22.09165 | 26169 ft | 396 kts | 330° |
| 2026-04-22 12:13 | 42.71275 | 22.07576 | 26584 ft | 388 kts | 321° |
| 2026-04-22 12:13 | 42.73456 | 22.05480 | 26983 ft | 381 kts | 313° |
| 2026-04-22 12:13 | 42.75324 | 22.02967 | 27337 ft | 376 kts | 304° |
| 2026-04-22 12:13 | 42.76965 | 22.00204 | 27690 ft | 376 kts | 303° |
| 2026-04-22 12:14 | 42.78612 | 21.97421 | 28075 ft | 378 kts | 303° |
| 2026-04-22 12:14 | 42.80247 | 21.94670 | 28475 ft | 380 kts | 303° |
| 2026-04-22 12:14 | 42.81915 | 21.91868 | 28885 ft | 382 kts | 303° |
| 2026-04-22 12:14 | 42.83588 | 21.89053 | 29287 ft | 383 kts | 303° |
| 2026-04-22 12:15 | 42.85265 | 21.86228 | 29800 ft | 382 kts | 303° |
| 2026-04-22 12:15 | 42.86932 | 21.83419 | 30354 ft | 381 kts | 303° |
| 2026-04-22 12:15 | 42.88612 | 21.80583 | 30557 ft | 387 kts | 304° |
| 2026-04-22 12:15 | 42.90313 | 21.77712 | 30787 ft | 391 kts | 304° |
| 2026-04-22 12:16 | 42.92023 | 21.74816 | 31100 ft | 393 kts | 304° |
| 2026-04-22 12:16 | 42.93739 | 21.71902 | 31434 ft | 394 kts | 304° |
| 2026-04-22 12:16 | 42.95459 | 21.68980 | 31784 ft | 395 kts | 304° |
| 2026-04-22 12:16 | 42.97180 | 21.66053 | 32133 ft | 396 kts | 304° |
| 2026-04-22 12:17 | 42.98904 | 21.63114 | 32465 ft | 397 kts | 304° |
| 2026-04-22 12:17 | 43.00634 | 21.60163 | 32799 ft | 398 kts | 305° |
| 2026-04-22 12:17 | 43.02366 | 21.57213 | 33122 ft | 399 kts | 305° |
| 2026-04-22 12:17 | 43.04103 | 21.54256 | 33434 ft | 399 kts | 305° |
| 2026-04-22 12:18 | 43.05843 | 21.51289 | 33790 ft | 400 kts | 305° |
| 2026-04-22 12:18 | 43.07583 | 21.48318 | 34120 ft | 401 kts | 305° |
| 2026-04-22 12:18 | 43.09323 | 21.45337 | 34392 ft | 402 kts | 305° |
| 2026-04-22 12:18 | 43.11064 | 21.42346 | 34660 ft | 402 kts | 305° |
| 2026-04-22 12:19 | 43.12809 | 21.39351 | 34940 ft | 403 kts | 305° |
| 2026-04-22 12:19 | 43.14556 | 21.36352 | 35235 ft | 403 kts | 305° |
| 2026-04-22 12:19 | 43.16307 | 21.33344 | 35536 ft | 404 kts | 305° |
| 2026-04-22 12:19 | 43.18061 | 21.30324 | 35727 ft | 407 kts | 305° |
| 2026-04-22 12:20 | 43.19827 | 21.27283 | 35954 ft | 408 kts | 306° |
| 2026-04-22 12:20 | 43.21599 | 21.24228 | 36071 ft | 410 kts | 306° |
| 2026-04-22 12:20 | 43.25146 | 21.18099 | 36095 ft | 410 kts | 306° |
| 2026-04-22 12:21 | 43.28691 | 21.11970 | 36100 ft | 410 kts | 306° |
| 2026-04-22 12:21 | 43.32235 | 21.05830 | 36107 ft | 410 kts | 306° |
| 2026-04-22 12:22 | 43.35777 | 20.99690 | 36109 ft | 410 kts | 306° |
| 2026-04-22 12:22 | 43.39289 | 20.93578 | 36109 ft | 410 kts | 306° |
| 2026-04-22 12:23 | 43.42820 | 20.87412 | 36116 ft | 411 kts | 306° |
| 2026-04-22 12:23 | 43.46358 | 20.81225 | 36132 ft | 412 kts | 306° |
| 2026-04-22 12:24 | 43.49898 | 20.75017 | 36125 ft | 413 kts | 306° |
| 2026-04-22 12:24 | 43.53450 | 20.68789 | 36134 ft | 413 kts | 306° |
| 2026-04-22 12:25 | 43.56999 | 20.62545 | 36137 ft | 414 kts | 306° |
| 2026-04-22 12:25 | 43.60547 | 20.56287 | 36144 ft | 414 kts | 306° |
| 2026-04-22 12:26 | 43.64091 | 20.50012 | 36145 ft | 414 kts | 306° |
| 2026-04-22 12:26 | 43.67634 | 20.43738 | 36145 ft | 414 kts | 306° |
| 2026-04-22 12:27 | 43.71146 | 20.37496 | 36152 ft | 414 kts | 306° |
| 2026-04-22 12:27 | 43.74684 | 20.31207 | 36167 ft | 415 kts | 306° |
| 2026-04-22 12:28 | 43.78229 | 20.24898 | 36158 ft | 416 kts | 306° |
| 2026-04-22 12:28 | 43.81773 | 20.18564 | 36149 ft | 416 kts | 306° |
| 2026-04-22 12:29 | 43.85318 | 20.12219 | 36136 ft | 416 kts | 306° |
| 2026-04-22 12:29 | 43.88863 | 20.05864 | 36132 ft | 417 kts | 306° |
| 2026-04-22 12:30 | 43.94167 | 19.96299 | 36132 ft | 417 kts | 306° |
| 2026-04-22 12:31 | 43.97704 | 19.89909 | 36128 ft | 417 kts | 306° |
| 2026-04-22 12:31 | 44.01244 | 19.83520 | 36134 ft | 418 kts | 306° |
| 2026-04-22 12:32 | 44.04771 | 19.77103 | 36151 ft | 418 kts | 306° |
| 2026-04-22 12:32 | 44.09980 | 19.67344 | 36140 ft | 419 kts | 305° |
| 2026-04-22 12:33 | 44.13451 | 19.60810 | 36137 ft | 420 kts | 306° |
| 2026-04-22 12:33 | 44.16930 | 19.54273 | 36145 ft | 420 kts | 306° |
| 2026-04-22 12:34 | 44.20406 | 19.47718 | 36149 ft | 421 kts | 305° |
| 2026-04-22 12:34 | 44.23881 | 19.41155 | 36151 ft | 421 kts | 305° |
| 2026-04-22 12:35 | 44.27337 | 19.34635 | 36151 ft | 421 kts | 306° |
| 2026-04-22 12:35 | 44.30811 | 19.28076 | 36154 ft | 420 kts | 306° |
| 2026-04-22 12:36 | 44.34276 | 19.21508 | 36166 ft | 420 kts | 306° |
| 2026-04-22 12:36 | 44.37739 | 19.14914 | 36161 ft | 421 kts | 306° |
| 2026-04-22 12:37 | 44.41198 | 19.08304 | 36159 ft | 421 kts | 306° |
| 2026-04-22 12:37 | 44.44661 | 19.01686 | 36157 ft | 421 kts | 306° |
| 2026-04-22 12:38 | 44.48123 | 18.95063 | 36162 ft | 422 kts | 306° |
| 2026-04-22 12:38 | 44.51576 | 18.88433 | 36162 ft | 421 kts | 306° |
| 2026-04-22 12:39 | 44.56741 | 18.78486 | 36166 ft | 421 kts | 306° |
| 2026-04-22 12:40 | 44.60177 | 18.71846 | 36177 ft | 421 kts | 306° |
| 2026-04-22 12:40 | 44.63609 | 18.65202 | 36182 ft | 421 kts | 306° |
| 2026-04-22 12:41 | 44.67049 | 18.58528 | 36169 ft | 422 kts | 306° |
| 2026-04-22 12:41 | 44.70490 | 18.51844 | 36163 ft | 422 kts | 306° |
| 2026-04-22 12:42 | 44.73932 | 18.45147 | 36158 ft | 422 kts | 306° |
| 2026-04-22 12:42 | 44.77361 | 18.38436 | 36162 ft | 422 kts | 306° |
| 2026-04-22 12:43 | 44.80788 | 18.31719 | 36162 ft | 422 kts | 306° |
| 2026-04-22 12:43 | 44.84215 | 18.24995 | 36163 ft | 422 kts | 306° |
| 2026-04-22 12:44 | 44.87614 | 18.18309 | 36171 ft | 422 kts | 306° |
| 2026-04-22 12:44 | 44.91029 | 18.11573 | 36168 ft | 422 kts | 306° |
| 2026-04-22 12:45 | 44.94443 | 18.04832 | 36176 ft | 423 kts | 306° |
| 2026-04-22 12:45 | 44.97852 | 17.98060 | 36175 ft | 423 kts | 306° |
| 2026-04-22 12:46 | 45.01383 | 17.91400 | 36173 ft | 424 kts | 308° |
| 2026-04-22 12:46 | 45.05008 | 17.84835 | 36168 ft | 424 kts | 304° |
| 2026-04-22 12:47 | 45.08225 | 17.77855 | 36180 ft | 424 kts | 303° |
| 2026-04-22 12:47 | 45.11359 | 17.70797 | 36189 ft | 423 kts | 302° |
| 2026-04-22 12:48 | 45.14465 | 17.63712 | 36196 ft | 423 kts | 302° |
| 2026-04-22 12:48 | 45.17585 | 17.56641 | 36195 ft | 423 kts | 303° |
| 2026-04-22 12:49 | 45.20708 | 17.49569 | 36198 ft | 423 kts | 303° |
| 2026-04-22 12:49 | 45.23832 | 17.42487 | 36209 ft | 424 kts | 303° |
| 2026-04-22 12:50 | 45.26954 | 17.35384 | 36199 ft | 424 kts | 303° |
| 2026-04-22 12:50 | 45.30072 | 17.28262 | 36199 ft | 425 kts | 303° |
| 2026-04-22 12:51 | 45.33191 | 17.21125 | 36200 ft | 425 kts | 303° |
| 2026-04-22 12:51 | 45.36304 | 17.13978 | 36200 ft | 425 kts | 303° |
| 2026-04-22 12:52 | 45.39414 | 17.06829 | 36202 ft | 425 kts | 303° |
| 2026-04-22 12:52 | 45.42520 | 16.99667 | 36206 ft | 425 kts | 302° |
| 2026-04-22 12:53 | 45.45598 | 16.92541 | 36197 ft | 425 kts | 302° |
| 2026-04-22 12:53 | 45.48698 | 16.85365 | 36208 ft | 425 kts | 302° |
| 2026-04-22 12:54 | 45.51789 | 16.78174 | 36211 ft | 425 kts | 302° |
| 2026-04-22 12:54 | 45.54882 | 16.70981 | 36218 ft | 425 kts | 302° |
| 2026-04-22 12:55 | 45.57467 | 16.64943 | 36221 ft | 426 kts | 302° |
| 2026-04-22 12:55 | 45.59509 | 16.60162 | 36085 ft | 426 kts | 302° |
| 2026-04-22 12:55 | 45.61046 | 16.56560 | 35842 ft | 424 kts | 302° |
| 2026-04-22 12:55 | 45.62578 | 16.52968 | 35601 ft | 423 kts | 302° |
| 2026-04-22 12:56 | 45.64105 | 16.49379 | 35361 ft | 423 kts | 302° |
| 2026-04-22 12:56 | 45.65633 | 16.45785 | 34844 ft | 424 kts | 302° |
| 2026-04-22 12:56 | 45.67170 | 16.42164 | 34084 ft | 428 kts | 302° |
| 2026-04-22 12:56 | 45.68718 | 16.38509 | 33179 ft | 431 kts | 302° |
| 2026-04-22 12:57 | 45.70271 | 16.34829 | 32351 ft | 433 kts | 302° |
| 2026-04-22 12:57 | 45.71829 | 16.31134 | 31512 ft | 435 kts | 302° |
| 2026-04-22 12:57 | 45.73390 | 16.27434 | 30615 ft | 438 kts | 302° |
| 2026-04-22 12:57 | 45.74978 | 16.23664 | 29536 ft | 442 kts | 302° |
| 2026-04-22 12:58 | 45.76567 | 16.19898 | 28556 ft | 442 kts | 303° |
| 2026-04-22 12:58 | 45.78141 | 16.16164 | 28072 ft | 434 kts | 303° |
| 2026-04-22 12:58 | 45.79685 | 16.12488 | 27435 ft | 429 kts | 303° |
| 2026-04-22 12:58 | 45.81212 | 16.08846 | 26824 ft | 423 kts | 303° |
| 2026-04-22 12:59 | 45.82719 | 16.05249 | 26211 ft | 418 kts | 303° |
| 2026-04-22 12:59 | 45.83705 | 16.02891 | 25820 ft | 415 kts | 303° |
| 2026-04-22 12:59 | 45.85678 | 15.98167 | 25011 ft | 411 kts | 303° |
| 2026-04-22 12:59 | 45.86648 | 15.95842 | 24619 ft | 408 kts | 303° |
| 2026-04-22 13:00 | 45.88584 | 15.91206 | 23838 ft | 403 kts | 303° |
| 2026-04-22 13:00 | 45.89537 | 15.88918 | 23389 ft | 401 kts | 303° |
| 2026-04-22 13:00 | 45.90956 | 15.85506 | 22819 ft | 395 kts | 303° |
| 2026-04-22 13:00 | 45.92357 | 15.82136 | 22257 ft | 391 kts | 304° |
| 2026-04-22 13:01 | 45.93694 | 15.78759 | 21717 ft | 389 kts | 297° |
| 2026-04-22 13:01 | 45.94540 | 15.75076 | 21167 ft | 391 kts | 284° |
| 2026-04-22 13:01 | 45.94763 | 15.71181 | 20634 ft | 393 kts | 270° |
| 2026-04-22 13:01 | 45.94339 | 15.67292 | 20064 ft | 397 kts | 256° |
| 2026-04-22 13:02 | 45.92795 | 15.62540 | 19331 ft | 400 kts | 237° |
| 2026-04-22 13:02 | 45.91642 | 15.60409 | 18954 ft | 400 kts | 232° |
| 2026-04-22 13:02 | 45.89882 | 15.57329 | 18397 ft | 398 kts | 233° |
| 2026-04-22 13:02 | 45.88131 | 15.54261 | 17808 ft | 396 kts | 233° |
| 2026-04-22 13:03 | 45.86393 | 15.51217 | 17243 ft | 392 kts | 233° |
| 2026-04-22 13:03 | 45.84672 | 15.48198 | 16685 ft | 389 kts | 233° |
| 2026-04-22 13:03 | 45.82963 | 15.45203 | 16096 ft | 387 kts | 232° |
| 2026-04-22 13:03 | 45.81348 | 15.42144 | 15511 ft | 383 kts | 242° |
| 2026-04-22 13:04 | 45.80296 | 15.38694 | 14940 ft | 375 kts | 257° |
| 2026-04-22 13:04 | 45.79921 | 15.35040 | 14372 ft | 368 kts | 273° |
| 2026-04-22 13:04 | 45.80210 | 15.31450 | 13800 ft | 359 kts | 288° |
| 2026-04-22 13:04 | 45.81093 | 15.28157 | 13231 ft | 350 kts | 302° |
| 2026-04-22 13:05 | 45.82427 | 15.25303 | 12717 ft | 342 kts | 310° |
| 2026-04-22 13:05 | 45.83809 | 15.22608 | 12201 ft | 338 kts | 310° |
| 2026-04-22 13:05 | 45.85192 | 15.19906 | 11680 ft | 334 kts | 310° |
| 2026-04-22 13:05 | 45.86561 | 15.17215 | 11038 ft | 335 kts | 310° |
| 2026-04-22 13:06 | 45.87921 | 15.14530 | 10732 ft | 327 kts | 310° |
| 2026-04-22 13:06 | 45.89225 | 15.11949 | 10582 ft | 313 kts | 310° |
| 2026-04-22 13:06 | 45.90474 | 15.09477 | 10453 ft | 299 kts | 310° |
| 2026-04-22 13:06 | 45.91673 | 15.07106 | 10313 ft | 288 kts | 310° |
| 2026-04-22 13:07 | 45.92835 | 15.04809 | 10069 ft | 282 kts | 310° |
| 2026-04-22 13:07 | 45.93984 | 15.02544 | 9876 ft | 280 kts | 309° |
| 2026-04-22 13:07 | 45.95117 | 15.00261 | 9735 ft | 281 kts | 309° |
| 2026-04-22 13:07 | 45.96239 | 14.97952 | 9469 ft | 284 kts | 309° |
| 2026-04-22 13:08 | 45.97365 | 14.95617 | 9064 ft | 283 kts | 308° |
| 2026-04-22 13:08 | 45.98493 | 14.93270 | 8606 ft | 284 kts | 308° |
| 2026-04-22 13:08 | 45.99602 | 14.90960 | 8137 ft | 277 kts | 308° |
| 2026-04-22 13:08 | 46.00694 | 14.88693 | 7377 ft | 274 kts | 309° |
| 2026-04-22 13:09 | 46.01772 | 14.86456 | 6817 ft | 271 kts | 309° |
| 2026-04-22 13:09 | 46.02842 | 14.84239 | 6266 ft | 269 kts | 309° |
| 2026-04-22 13:09 | 46.03907 | 14.82032 | 5764 ft | 268 kts | 309° |
| 2026-04-22 13:09 | 46.04970 | 14.79827 | 5250 ft | 268 kts | 308° |
| 2026-04-22 13:10 | 46.06049 | 14.77594 | 4825 ft | 272 kts | 308° |
| 2026-04-22 13:10 | 46.07105 | 14.75417 | 4742 ft | 258 kts | 310° |
| 2026-04-22 13:10 | 46.08132 | 14.73411 | 4713 ft | 239 kts | 311° |
| 2026-04-22 13:10 | 46.09099 | 14.71552 | 4609 ft | 225 kts | 311° |
| 2026-04-22 13:11 | 46.09995 | 14.69822 | 4525 ft | 214 kts | 311° |
| 2026-04-22 13:11 | 46.10885 | 14.68099 | 4432 ft | 209 kts | 311° |
| 2026-04-22 13:11 | 46.11738 | 14.66448 | 4354 ft | 208 kts | 311° |
| 2026-04-22 13:11 | 46.12601 | 14.64776 | 4168 ft | 205 kts | 310° |
| 2026-04-22 13:12 | 46.13415 | 14.63192 | 3919 ft | 188 kts | 310° |
| 2026-04-22 13:12 | 46.14163 | 14.61738 | 3683 ft | 171 kts | 311° |
| 2026-04-22 13:12 | 46.14827 | 14.60444 | 3461 ft | 153 kts | 312° |
| 2026-04-22 13:12 | 46.15447 | 14.59242 | 3243 ft | 146 kts | 313° |
| 2026-04-22 13:13 | 46.16052 | 14.58070 | 3048 ft | 145 kts | 313° |
| 2026-04-22 13:13 | 46.16650 | 14.56908 | 2852 ft | 144 kts | 312° |
| 2026-04-22 13:13 | 46.17244 | 14.55752 | 2658 ft | 143 kts | 311° |
| 2026-04-22 13:13 | 46.17836 | 14.54602 | 2468 ft | 143 kts | 311° |
| 2026-04-22 13:14 | 46.18424 | 14.53456 | 2265 ft | 142 kts | 311° |
| 2026-04-22 13:14 | 46.19021 | 14.52296 | 2068 ft | 147 kts | 312° |
| 2026-04-22 13:14 | 46.19630 | 14.51108 | 1853 ft | 147 kts | 310° |
| 2026-04-22 13:14 | 46.20243 | 14.49912 | 1656 ft | 148 kts | 307° |
| 2026-04-22 13:15 | 46.20854 | 14.48720 | 1460 ft | 146 kts | 307° |
| 2026-04-22 13:15 | 46.21455 | 14.47540 | 1265 ft | 146 kts | 306° |
| 2026-04-22 13:15 | 46.22032 | 14.46414 | 1231 ft | 117 kts | 307° |
| 2026-04-22 13:15 | 46.22276 | 14.45942 | 1240 ft | 39 kts | 306° |
| 2026-04-22 13:16 | 46.22432 | 14.45638 | 1250 ft | 36 kts | 307° |
| 2026-04-22 13:16 | 46.22598 | 14.45413 | 1257 ft | 31 kts | 333° |
| 2026-04-22 13:16 | 46.22744 | 14.45332 | 1260 ft | 20 kts | 349° |
| 2026-04-22 13:16 | 46.22837 | 14.45321 | 1259 ft | 13 kts | 11° |
| 2026-04-22 13:17 | 46.22901 | 14.45374 | 1264 ft | 10 kts | 36° |
| 2026-04-22 13:17 | 46.22958 | 14.45419 | 1263 ft | 10 kts | 30° |
| 2026-04-22 13:17 | 46.22994 | 14.45457 | 1258 ft | 2 kts | 37° |
| 2026-04-22 13:17 | 46.23000 | 14.45464 | 1265 ft | 0 kts | 37° |